Home Music Articles Forums Blog Chat More...      
bigblotbob
(M.C. Towelboy)


Member Since: Wednesday, August 11 2004 @ 08:08 PM CDT
Contact: send a note
Homepage: http://www.purevolume.com/thecrustywhiteboys
Location: ,
Song Comments: 29
Song Votes: 14
Forum Posts: 5
Weekly Points: 0.00
Total Points: 945.28
Bio:
Boo!
bigblotbob's Songs (87)
Date Title Rating Hits Genre Last Comment Status
02.14.09 Alameda 6.25 (1) 1441 (0) Lo-fi 09.02.11 Active
05.19.08 Unsure 0.00 (0) 1399 (0) Pop (mainstream) N/A Active
04.14.08 Looks Like Butter 0.00 (0) 1601 (5) Folk (traditional) 05.19.08 Active
04.03.08 Voyage 0.00 (0) 1339 (0) Classical N/A Active
01.27.08 Everything's Fine 0.00 (0) 1340 (1) Folk-Rock 01.27.08 Active
12.15.07 True 0.00 (0) 1082 (1) Experimental 12.16.07 Active
11.17.07 Apology Song 0.00 (0) 1299 (1) Pop (Alternative) 09.02.11 Active
11.15.07 Channel Surfing 0.00 (0) 1607 (6) Art Rock 11.17.07 Active
11.13.07 I've Been Waiting #2 0.00 (0) 1078 (1) Acoustic Rock 11.14.07 Active
11.10.07 Funky Me 6.06 (4) 1924 (4) Lo-fi 11.11.07 Active
11.07.07 Smile Style 6.75 (3) 2129 (3) Psychedelic 11.07.07 Active
11.05.07 Lao Tzu vs. Confucious Freestyle Battle 8.56 (4) 2337 (5) Hip Hop-Rap 11.22.07 Active
10.30.07 Girl at the Trader Joes 0.00 (0) 1657 (3) Lo-fi 06.12.10 Active
10.21.07 Depression 0.00 (0) 1885 (9) Acoustic 01.27.08 Active
10.17.07 Gregorian Chant Experiment 0.00 (0) 1915 (3) A Cappella 11.16.07 Active
09.16.07 I've Been Waiting 0.00 (0) 1508 (0) Folk (contemporary) N/A Active
09.13.07 Canned Pineapple Chunks 0.00 (0) 1760 (1) Folk (contemporary) 09.14.07 Active
09.11.07 NYC 7.00 (1) 1740 (3) Folk (contemporary) 09.11.07 Active
07.24.07 The Anxiety Ballet 8.50 (2) 1655 (2) Classical 07.25.07 Active
06.02.07 A Short Song About Diane Arbus on Toy Instruments 7.88 (2) 1533 (4) Alternative Rock 12.12.12 Active
04.08.07 Na Na Na 0.00 (0) 1131 (1) Ambient 04.11.07 Active
04.08.07 Patty Cake in the Burn Ward 0.00 (0) 2155 (1) Pop Classical 04.08.07 Active
03.02.07 Cuban Box 0.00 (0) 1123 (0) Lo-fi N/A Active
02.14.07 50 Cent vs. VU 2.75 (1) 1597 (0) Hip Hop-Rap N/A Active
01.24.07 Emily Remix 0.00 (0) 1111 (0) Acoustic Rock N/A Active
01.16.07 Ross is on the Wamp Wamp 0.00 (0) 2293 (3) Hip Hop-Rap 03.09.07 Active
12.19.06 The Pictures Warp Your Memories 0.00 (0) 1605 (0) Sampler N/A Active
07.29.06 Kill Your Boyfriend 7.50 (1) 1576 (3) Folk-Rock 08.04.06 Active
07.29.06 Jesus 7.00 (1) 1762 (1) Ambient 07.31.06 Active
07.17.06 Cunt 5.75 (3) 1564 (0) Art Rock N/A Active
07.04.06 For Rent 7.25 (1) 1694 (3) Bluegrass 08.06.06 Active
06.17.06 The Beach 7.50 (1) 1482 (1) Ambient 06.17.06 Active
04.23.06 Trashcan Full of Tissues(Anna Dirty Magazine) 4.00 (1) 1759 (0) Children's Music N/A Active
03.01.06 Treat Me Like You Should 7.00 (2) 1989 (1) Rockabilly 03.12.06 Active
12.05.05 No Birthday Parties In Space 6.75 (2) 1791 (2) Bluegrass 12.17.05 Active
11.23.05 I Have Leukemia 8.25 (3) 5049 (7) Children's Music 11.16.07 Active
11.05.05 Feedback 4.00 (1) 1566 (2) Other 11.06.05 Active
10.16.05 Throwing the Piano Out the Window 6.50 (3) 2465 (3) Hip Hop-Rap 12.14.05 Active
10.09.05 Chem Haiku 7.00 (1) 1889 (1) Spoken Word-Poetry 06.11.10 Active
10.09.05 Mark Twain 8.38 (2) 2052 (2) Folk (contemporary) 10.15.05 Active
10.09.05 Christine 0.00 (0) 1566 (0) Rock & Roll N/A Active
10.04.05 Getting Personal 7.25 (2) 1464 (1) Experimental 10.05.05 Active
09.22.05 Dropping the Dictionary 7.50 (2) 1944 (3) Hip Hop-Rap 11.11.05 Active
09.17.05 The Airplane Ride 7.58 (3) 1976 (1) Spoken Word-Poetry 09.18.05 Active
09.10.05 I Never Cared(cell phone sessions)take one 5.25 (1) 1435 (2) Inspirational (contemporary) 09.11.05 Active
09.10.05 I Never Cared(cell phone sessions) 3.00 (1) 1548 (0) Country-Western N/A Active
09.10.05 Hurricane (with kitchen products) 0.00 (0) 1622 (3) Other 09.10.05 Active
08.25.05 Legal Mind Expansion 7.00 (1) 2004 (4) Hip Hop-Rap 07.02.06 Active
08.22.05 I Don't Know Theme 2.63 (2) 1479 (7) Hip Hop-Rap 05.09.06 Active
08.21.05 B*tchin' Binary 6.13 (2) 1902 (1) Hip Hop-Rap 12.17.05 Active
08.21.05 3 a.m. (Beatbox take) 6.63 (2) 1558 (2) Jazz (instrumental) 09.14.05 Active
08.15.05 3 a.m. 7.50 (3) 1616 (6) Experimental 02.18.07 Active
08.14.05 Freeform MC Squared 3.75 (2) 1927 (5) Hip Hop-Rap 08.20.05 Active
08.11.05 Places We've Been 6.42 (3) 1397 (2) Hip Hop-Rap 12.14.05 Active
06.21.05 You're Leaving 4.25 (1) 2123 (4) Ballad 08.21.05 Active
06.08.05 TV Rex 0.00 (0) 1751 (4) Rock & Roll 06.09.05 Active
05.30.05 La Da Dee Remix 0.00 (0) 1991 (0) Other N/A Active
05.21.05 Fuck Sprint 6.81 (4) 2578 (2) Pop (mainstream) 09.30.05 Active
05.14.05 La Da Dee 5.75 (1) 1605 (1) New Age 05.29.05 Active
04.27.05 The Electric Dead 6.25 (1) 1880 (2) Folk (contemporary) 04.30.05 Active
04.15.05 I Could See You Kissing Him 7.33 (3) 1637 (1) Pop (mainstream) 09.23.05 Active
04.12.05 When Will I See You Again? 6.13 (2) 3296 (3) Folk (contemporary) 04.22.05 Active
04.12.05 Great Bagel in the Sky 5.50 (2) 1685 (1) Folk (contemporary) 04.20.05 Active
02.15.05 Tired Eyes 7.08 (3) 1810 (2) Other 02.24.05 Active
02.10.05 Being Not Being 4.38 (2) 1756 (1) Pop (mainstream) 02.20.05 Active
12.14.04 Magical Scooter 6.56 (4) 2519 (2) Folk (contemporary) 02.20.05 Active
12.05.04 Beat this Beat! 6.17 (3) 2361 (4) Hip Hop-Rap 01.21.06 Active
11.26.04 Like A Watermelon 6.44 (4) 2229 (2) Folk (contemporary) 02.20.05 Active
11.18.04 Another Head in the Basket 5.50 (2) 2009 (1) Rock & Roll 02.20.05 Active
10.25.04 Zach's 50 Inch Twinkie 4.38 (6) 2710 (2) Inspirational (contemporary) 12.18.04 Active
09.21.04 Waiting For the Bus 6.00 (3) 2022 (3) Rock & Roll 12.14.05 Active
09.19.04 An Unofficial Theme To Rushmore 5.75 (2) 2023 (0) Cinematic Soundtrack N/A Active
09.08.04 Poop-Tang 6.30 (3) 2374 (3) Hip Hop-Rap 12.17.05 Active
09.05.04 Lazy Monkey 4.38 (2) 2214 (1) Inspirational (contemporary) 09.09.04 Active
09.05.04 Jammin With Microsoft Sam 6.21 (7) 7888 (3) Hip Hop-Rap 12.09.05 Active
09.05.04 Instrumental Wanking 4.33 (3) 3825 (0) Other N/A Active
09.05.04 Sex on the Beach 4.81 (4) 5887 (2) Experimental 09.06.04 Active
09.05.04 Rise of the Deity 6.63 (2) 2022 (0) Other N/A Active
09.05.04 Tried To Call You 7.13 (2) 2042 (0) Pop (mainstream) N/A Active
09.03.04 Shoegazing 4.00 (2) 2159 (2) New Age 09.04.04 Active
09.03.04 I Am A Very Small Penguin 5.38 (4) 2483 (1) Showtunes 04.07.05 Active
09.02.04 The Shortest Song In the World 5.68 (7) 9426 (9) Inspirational (contemporary) 12.12.12 Active
09.02.04 Drowning Kittens 4.75 (3) 2965 (1) Other 09.02.04 Active
09.01.04 I Met Elvis 5.50 (5) 1598 (1) Other 09.02.04 Active
08.16.04 Yo-What Up? 5.33 (6) 2395 (2) Hip Hop-Rap 12.09.05 Active
08.16.04 Crusty One Zero 6.35 (5) 1986 (2) Hip Hop-Rap 12.09.05 Active
08.13.04 Liars And Murderers 6.00 (9) 2180 (6) Hip Hop-Rap 12.12.12 Active
Favorite Songs (7)
Favorite MacJammers (3)
Fans (9)
Music Background
Music Skills
Music Hardware
Music Software
Keywords